Time;durP1;ratioP1;P1;durP2;ratioP2;P2;SDS_P1;SDS_P2;PMS_P1;PMS_P2;Temp;Humidity;BMP_temperature;BMP_pressure;BME280_temperature;BME280_humidity;BME280_pressure;Samples;Min_cycle;Max_cycle;Signal;HPM_P1;HPM_P2
2023/08/28 00:00:10;;;;;;;4.53;3.35;;;;;;;;;;6224053;23;20202;-91
2023/08/28 00:03:16;;;;;;;6.57;4.15;;;;;;;;;;6225871;23;20171;-90
2023/08/28 00:06:21;;;;;;;6.18;3.50;;;;;;;;;;6224128;23;20500;-91
2023/08/28 00:09:28;;;;;;;4.28;3.20;;;;;;;;;;6223732;23;20151;-94
2023/08/28 00:12:36;;;;;;;4.93;3.60;;;;;;;;;;6225013;23;20183;-92
2023/08/28 00:15:41;;;;;;;5.85;2.95;;;;;;;;;;6224665;23;20610;-91
2023/08/28 00:18:47;;;;;;;4.22;2.90;;;;;;;;;;6225585;23;20175;-89
2023/08/28 00:21:53;;;;;;;8.38;3.17;;;;;;;;;;6224543;23;20516;-90
2023/08/28 00:24:59;;;;;;;4.28;2.70;;;;;;;;;;6225962;23;20301;-88
2023/08/28 00:28:04;;;;;;;4.57;3.30;;;;;;;;;;6226069;23;20163;-92
2023/08/28 00:31:09;;;;;;;4.60;3.08;;;;;;;;;;6226810;23;20627;-91
2023/08/28 00:34:14;;;;;;;6.57;2.92;;;;;;;;;;6226470;23;20186;-87
2023/08/28 00:37:19;;;;;;;3.70;2.70;;;;;;;;;;6225164;23;20167;-89
2023/08/28 00:40:26;;;;;;;6.40;2.90;;;;;;;;;;6225692;23;20202;-89
2023/08/28 00:43:31;;;;;;;7.65;3.20;;;;;;;;;;6226824;23;20154;-88
2023/08/28 00:46:36;;;;;;;5.43;2.63;;;;;;;;;;6227511;23;20171;-91
2023/08/28 00:49:42;;;;;;;4.90;2.80;;;;;;;;;;6226369;23;20166;-90
2023/08/28 00:52:47;;;;;;;4.85;2.38;;;;;;;;;;6225204;23;20607;-90
2023/08/28 00:55:53;;;;;;;4.70;2.40;;;;;;;;;;6224802;23;20147;-92
2023/08/28 00:58:58;;;;;;;3.80;2.40;;;;;;;;;;6225555;23;20158;-94
2023/08/28 01:02:03;;;;;;;5.60;2.58;;;;;;;;;;6226614;23;20175;-91
2023/08/28 01:05:09;;;;;;;4.05;2.72;;;;;;;;;;6226761;23;20167;-89
2023/08/28 01:08:16;;;;;;;4.70;2.42;;;;;;;;;;6224040;23;20167;-89
2023/08/28 01:11:26;;;;;;;3.75;2.60;;;;;;;;;;6226107;23;20174;-92
2023/08/28 01:14:31;;;;;;;3.60;2.35;;;;;;;;;;6225896;23;20179;-89
2023/08/28 01:17:37;;;;;;;4.65;2.20;;;;;;;;;;6226189;23;20167;-92
2023/08/28 01:20:43;;;;;;;4.80;2.15;;;;;;;;;;6227040;23;20194;-88
2023/08/28 01:23:51;;;;;;;4.07;2.00;;;;;;;;;;6225124;23;20167;-92
2023/08/28 01:26:58;;;;;;;5.57;2.63;;;;;;;;;;6227978;23;20170;-92
2023/08/28 01:30:07;;;;;;;5.07;2.88;;;;;;;;;;6226549;23;20556;-89
2023/08/28 01:33:13;;;;;;;4.15;2.22;;;;;;;;;;6226903;23;20167;-91
2023/08/28 01:36:23;;;;;;;5.53;2.25;;;;;;;;;;6227845;23;20212;-93
2023/08/28 01:39:31;;;;;;;6.65;2.35;;;;;;;;;;6227548;23;20235;-90
2023/08/28 01:42:38;;;;;;;6.75;2.33;;;;;;;;;;6229566;23;20171;-91
2023/08/28 01:45:43;;;;;;;6.07;2.58;;;;;;;;;;6229200;23;20163;-91
2023/08/28 01:48:52;;;;;;;4.18;2.58;;;;;;;;;;6228677;23;20238;-92
2023/08/28 01:51:57;;;;;;;6.15;2.30;;;;;;;;;;6229015;23;20168;-92
2023/08/28 01:55:02;;;;;;;3.33;1.88;;;;;;;;;;6229128;23;20155;-95
2023/08/28 01:58:09;;;;;;;4.57;1.70;;;;;;;;;;6227410;23;20217;-92
2023/08/28 02:01:14;;;;;;;5.05;1.88;;;;;;;;;;6228426;23;20202;-91
2023/08/28 02:04:23;;;;;;;3.10;1.52;;;;;;;;;;6226946;23;20155;-92
2023/08/28 02:07:28;;;;;;;2.70;1.58;;;;;;;;;;6226406;23;20246;-90
2023/08/28 02:10:36;;;;;;;4.15;1.80;;;;;;;;;;6226867;23;20231;-93
2023/08/28 02:13:43;;;;;;;3.30;1.60;;;;;;;;;;6228070;23;20615;-92
2023/08/28 02:16:48;;;;;;;4.88;1.73;;;;;;;;;;6227361;23;20167;-91
2023/08/28 02:19:53;;;;;;;5.05;1.50;;;;;;;;;;6227615;23;20151;-92
2023/08/28 02:22:58;;;;;;;3.60;1.73;;;;;;;;;;6229873;23;20210;-91
2023/08/28 02:26:04;;;;;;;2.90;1.73;;;;;;;;;;6229209;23;20167;-90
2023/08/28 02:29:12;;;;;;;6.35;1.60;;;;;;;;;;6230321;23;20167;-91
2023/08/28 02:32:17;;;;;;;2.63;1.50;;;;;;;;;;6228773;23;20222;-92
2023/08/28 02:35:22;;;;;;;3.22;1.70;;;;;;;;;;6228358;23;20167;-88
2023/08/28 02:38:27;;;;;;;4.18;1.75;;;;;;;;;;6226716;23;20158;-91
2023/08/28 02:41:32;;;;;;;3.28;1.88;;;;;;;;;;6227326;23;20198;-90
2023/08/28 02:44:38;;;;;;;3.30;1.80;;;;;;;;;;6228874;23;20167;-91
2023/08/28 02:47:45;;;;;;;3.20;1.80;;;;;;;;;;6227062;23;20574;-89
2023/08/28 02:50:50;;;;;;;2.72;1.80;;;;;;;;;;6225573;23;20618;-92
2023/08/28 02:53:56;;;;;;;11.43;6.47;;;;;;;;;;6227772;23;20198;-90
2023/08/28 02:57:01;;;;;;;22.02;10.18;;;;;;;;;;6227342;23;20207;-91
2023/08/28 03:00:09;;;;;;;6.00;3.20;;;;;;;;;;6226798;23;20501;-90
2023/08/28 03:03:14;;;;;;;5.45;2.33;;;;;;;;;;6228046;23;20172;-91
2023/08/28 03:06:19;;;;;;;4.57;2.03;;;;;;;;;;6226067;23;20163;-93
2023/08/28 03:09:25;;;;;;;3.47;1.98;;;;;;;;;;6225221;23;20618;-90
2023/08/28 03:12:30;;;;;;;3.88;2.20;;;;;;;;;;6226712;23;20190;-91
2023/08/28 03:15:37;;;;;;;4.20;1.92;;;;;;;;;;6226741;23;20163;-90
2023/08/28 03:18:42;;;;;;;4.55;2.38;;;;;;;;;;6227300;23;20500;-90
2023/08/28 03:21:47;;;;;;;3.90;2.33;;;;;;;;;;6227621;23;20198;-92
2023/08/28 03:24:53;;;;;;;3.38;2.17;;;;;;;;;;6226086;23;20162;-90
2023/08/28 03:27:58;;;;;;;3.35;1.92;;;;;;;;;;6226725;23;20151;-92
2023/08/28 03:31:04;;;;;;;6.85;2.45;;;;;;;;;;6226960;23;20247;-90
2023/08/28 03:34:09;;;;;;;4.07;2.28;;;;;;;;;;6226319;23;20619;-90
2023/08/28 03:37:14;;;;;;;4.43;2.15;;;;;;;;;;6226634;23;20166;-91
2023/08/28 03:40:19;;;;;;;5.75;2.50;;;;;;;;;;6226104;23;20243;-88
2023/08/28 03:43:24;;;;;;;6.35;2.63;;;;;;;;;;6226738;23;20155;-90
2023/08/28 03:46:30;;;;;;;3.55;2.30;;;;;;;;;;6227461;23;20215;-90
2023/08/28 03:49:35;;;;;;;4.18;2.65;;;;;;;;;;6228425;23;20171;-90
2023/08/28 03:52:40;;;;;;;5.55;2.78;;;;;;;;;;6227228;23;20187;-93
2023/08/28 03:55:45;;;;;;;4.22;2.50;;;;;;;;;;6226505;23;20167;-90
2023/08/28 03:58:50;;;;;;;4.72;2.28;;;;;;;;;;6226914;23;20236;-87
2023/08/28 04:01:56;;;;;;;4.88;3.20;;;;;;;;;;6227550;23;20195;-91
2023/08/28 04:05:04;;;;;;;6.95;2.60;;;;;;;;;;6228796;23;20171;-92
2023/08/28 04:08:09;;;;;;;5.63;2.45;;;;;;;;;;6226982;23;20214;-91
2023/08/28 04:11:14;;;;;;;4.40;2.80;;;;;;;;;;6226498;23;20195;-91
2023/08/28 04:14:19;;;;;;;4.40;2.20;;;;;;;;;;6226948;23;20150;-91
2023/08/28 04:17:26;;;;;;;5.65;2.45;;;;;;;;;;6226420;23;20151;-92
2023/08/28 04:20:31;;;;;;;7.88;2.50;;;;;;;;;;6226425;23;20172;-89
2023/08/28 04:23:36;;;;;;;4.60;2.65;;;;;;;;;;6227047;23;20167;-91
2023/08/28 04:26:41;;;;;;;6.07;3.15;;;;;;;;;;6226948;23;20166;-90
2023/08/28 04:29:47;;;;;;;4.43;2.67;;;;;;;;;;6235160;23;20179;-88
2023/08/28 04:32:53;;;;;;;8.68;3.10;;;;;;;;;;6230337;23;20224;-91
2023/08/28 04:36:00;;;;;;;5.43;3.13;;;;;;;;;;6232411;23;20243;-90
2023/08/28 04:39:06;;;;;;;6.20;3.10;;;;;;;;;;6229498;23;20171;-91
2023/08/28 04:42:12;;;;;;;6.75;3.00;;;;;;;;;;6226353;23;20202;-90
2023/08/28 04:45:18;;;;;;;5.22;2.85;;;;;;;;;;6228905;23;20151;-92
2023/08/28 04:48:24;;;;;;;7.25;3.35;;;;;;;;;;6227757;23;20218;-90
2023/08/28 04:51:29;;;;;;;7.43;3.20;;;;;;;;;;6227684;23;20576;-89
2023/08/28 04:54:34;;;;;;;5.50;3.10;;;;;;;;;;6228390;23;20150;-91
2023/08/28 04:57:39;;;;;;;3.85;2.40;;;;;;;;;;6226191;23;20567;-89
2023/08/28 05:00:45;;;;;;;4.43;2.15;;;;;;;;;;6227875;23;20155;-90
2023/08/28 05:03:57;;;;;;;3.83;2.00;;;;;;;;;;6229276;23;20167;-91
2023/08/28 05:07:02;;;;;;;3.42;1.85;;;;;;;;;;6227215;23;20155;-90
2023/08/28 05:10:08;;;;;;;4.55;2.20;;;;;;;;;;6226850;23;20249;-92
2023/08/28 05:13:13;;;;;;;4.82;2.28;;;;;;;;;;6227419;23;20187;-90
2023/08/28 05:16:19;;;;;;;8.52;2.78;;;;;;;;;;6228640;23;20172;-91
2023/08/28 05:19:26;;;;;;;5.78;2.28;;;;;;;;;;6228197;23;20283;-91
2023/08/28 05:22:31;;;;;;;3.33;1.50;;;;;;;;;;6227201;23;20227;-89
2023/08/28 05:25:36;;;;;;;2.65;1.70;;;;;;;;;;6228780;23;20316;-90
2023/08/28 05:28:41;;;;;;;3.47;1.90;;;;;;;;;;6230923;23;20158;-90
2023/08/28 05:31:48;;;;;;;2.80;1.55;;;;;;;;;;6231377;23;20630;-90
2023/08/28 05:34:58;;;;;;;3.33;2.03;;;;;;;;;;6230586;23;20186;-90
2023/08/28 05:38:03;;;;;;;3.67;1.70;;;;;;;;;;6229994;23;20182;-91
2023/08/28 05:41:08;;;;;;;3.92;1.80;;;;;;;;;;6245988;22;20190;-91
2023/08/28 05:44:14;;;;;;;2.83;1.98;;;;;;;;;;6229693;23;20179;-89
2023/08/28 05:47:20;;;;;;;3.70;1.98;;;;;;;;;;6227645;23;20175;-91
2023/08/28 05:50:26;;;;;;;4.45;1.88;;;;;;;;;;6228883;23;20220;-93
2023/08/28 05:53:32;;;;;;;2.78;1.77;;;;;;;;;;6227050;23;20267;-89
2023/08/28 05:56:38;;;;;;;2.03;1.45;;;;;;;;;;6228680;23;20175;-90
2023/08/28 05:59:43;;;;;;;3.17;1.65;;;;;;;;;;6227322;23;20163;-91
2023/08/28 06:02:49;;;;;;;3.92;1.55;;;;;;;;;;6226172;23;20186;-89
2023/08/28 06:05:55;;;;;;;4.35;1.90;;;;;;;;;;6228773;23;20171;-91
2023/08/28 06:09:05;;;;;;;3.05;1.80;;;;;;;;;;6228237;23;20234;-92
2023/08/28 06:12:09;;;;;;;2.65;1.73;;;;;;;;;;6226809;23;20198;-92
2023/08/28 06:15:16;;;;;;;4.57;1.85;;;;;;;;;;6228989;23;20163;-90
2023/08/28 06:18:21;;;;;;;5.95;1.90;;;;;;;;;;6227618;23;20171;-92
2023/08/28 06:21:28;;;;;;;5.30;1.73;;;;;;;;;;6229043;23;20191;-90
2023/08/28 06:24:33;;;;;;;5.38;2.50;;;;;;;;;;6227917;23;20175;-92
2023/08/28 06:27:39;;;;;;;5.80;2.10;;;;;;;;;;6228505;23;20677;-89
2023/08/28 06:30:45;;;;;;;3.50;1.42;;;;;;;;;;6228140;23;20147;-92
2023/08/28 06:33:50;;;;;;;2.35;1.40;;;;;;;;;;6228294;23;20219;-91
2023/08/28 06:36:56;;;;;;;3.83;1.48;;;;;;;;;;6230551;23;20163;-90
2023/08/28 06:40:03;;;;;;;2.80;1.63;;;;;;;;;;6231390;23;20204;-90
2023/08/28 06:43:08;;;;;;;7.13;1.90;;;;;;;;;;6231957;23;20197;-90
2023/08/28 06:46:14;;;;;;;3.75;2.17;;;;;;;;;;6229427;23;20163;-91
2023/08/28 06:49:19;;;;;;;3.38;1.70;;;;;;;;;;6247411;23;20175;-91
2023/08/28 06:52:26;;;;;;;3.45;1.52;;;;;;;;;;6229590;23;20172;-91
2023/08/28 06:55:32;;;;;;;5.43;1.75;;;;;;;;;;6228403;23;20237;-93
2023/08/28 06:58:37;;;;;;;2.35;1.40;;;;;;;;;;6228481;23;20246;-91
2023/08/28 07:01:43;;;;;;;2.55;1.70;;;;;;;;;;6229234;23;20665;-91
2023/08/28 07:04:48;;;;;;;6.30;2.33;;;;;;;;;;6228121;23;20167;-88
2023/08/28 07:07:55;;;;;;;3.80;1.50;;;;;;;;;;6227485;23;20211;-91
2023/08/28 07:11:00;;;;;;;2.33;1.70;;;;;;;;;;6227797;23;20189;-91
2023/08/28 07:14:07;;;;;;;3.70;1.75;;;;;;;;;;6229139;23;20170;-93
2023/08/28 07:17:12;;;;;;;2.75;1.50;;;;;;;;;;6228188;23;20174;-87
2023/08/28 07:20:18;;;;;;;4.00;2.10;;;;;;;;;;6231963;23;20198;-89
2023/08/28 07:23:25;;;;;;;2.42;1.60;;;;;;;;;;6231264;23;20194;-90
2023/08/28 07:26:30;;;;;;;8.63;1.80;;;;;;;;;;6233131;23;20175;-93
2023/08/28 07:29:46;;;;;;;4.65;1.98;;;;;;;;;;6232585;23;20175;-91
2023/08/28 07:32:51;;;;;;;3.85;2.03;;;;;;;;;;6231290;23;20156;-90
2023/08/28 07:35:57;;;;;;;3.00;1.50;;;;;;;;;;6233025;23;20222;-90
2023/08/28 07:39:04;;;;;;;2.80;1.77;;;;;;;;;;6231611;23;20172;-89
2023/08/28 07:42:09;;;;;;;21.85;2.33;;;;;;;;;;6231471;23;20199;-90
2023/08/28 07:45:14;;;;;;;6.15;1.90;;;;;;;;;;6230085;23;20589;-87
2023/08/28 07:48:23;;;;;;;5.95;1.27;;;;;;;;;;6231561;23;20214;-89
2023/08/28 07:54:49;;;;;;;2.63;1.17;;;;;;;;;;6212384;23;20238;-89
2023/08/28 07:57:55;;;;;;;1.88;0.98;;;;;;;;;;6211850;23;20223;-92
2023/08/28 08:01:00;;;;;;;3.67;1.90;;;;;;;;;;6212156;23;20163;-91
2023/08/28 08:04:06;;;;;;;4.10;1.50;;;;;;;;;;6210324;23;20172;-88
2023/08/28 08:07:11;;;;;;;6.07;1.92;;;;;;;;;;6213254;23;20239;-89
2023/08/28 08:10:19;;;;;;;3.47;1.95;;;;;;;;;;6215851;23;20186;-91
2023/08/28 08:13:25;;;;;;;5.20;1.80;;;;;;;;;;6213193;23;20172;-93
2023/08/28 08:16:32;;;;;;;4.57;1.67;;;;;;;;;;6212246;23;20179;-92
2023/08/28 08:19:40;;;;;;;5.60;2.03;;;;;;;;;;6212474;23;20166;-91
2023/08/28 08:22:46;;;;;;;3.05;1.45;;;;;;;;;;6213262;23;20195;-92
2023/08/28 08:25:54;;;;;;;5.93;2.92;;;;;;;;;;6215306;23;20223;-91
2023/08/28 08:28:59;;;;;;;3.83;1.70;;;;;;;;;;6214719;23;20202;-90
2023/08/28 08:32:06;;;;;;;2.80;1.45;;;;;;;;;;6214228;23;20187;-90
2023/08/28 08:35:12;;;;;;;5.68;1.30;;;;;;;;;;6216511;23;20170;-91
2023/08/28 08:38:17;;;;;;;11.00;1.95;;;;;;;;;;6213913;23;20176;-91
2023/08/28 08:41:23;;;;;;;2.75;1.50;;;;;;;;;;6211245;23;20239;-91
2023/08/28 08:44:29;;;;;;;4.28;1.35;;;;;;;;;;6211177;23;20166;-92
2023/08/28 08:47:36;;;;;;;4.05;1.67;;;;;;;;;;6213343;23;20159;-92
2023/08/28 08:50:42;;;;;;;4.07;1.90;;;;;;;;;;6230672;23;20162;-92
2023/08/28 08:53:49;;;;;;;4.50;1.85;;;;;;;;;;6214066;23;20166;-89
2023/08/28 08:57:00;;;;;;;4.20;1.98;;;;;;;;;;6216660;23;20224;-91
2023/08/28 09:00:11;;;;;;;5.45;1.15;;;;;;;;;;6213100;23;20236;-88
2023/08/28 09:03:16;;;;;;;3.47;1.60;;;;;;;;;;6214256;23;20191;-90
2023/08/28 09:06:25;;;;;;;3.55;1.60;;;;;;;;;;6213952;23;20168;-90
2023/08/28 09:09:31;;;;;;;3.03;1.50;;;;;;;;;;6212454;23;20190;-94
2023/08/28 09:12:38;;;;;;;3.22;1.38;;;;;;;;;;6214894;23;20175;-91
2023/08/28 09:15:43;;;;;;;4.90;1.48;;;;;;;;;;6212944;23;20175;-91
2023/08/28 09:18:48;;;;;;;6.47;1.80;;;;;;;;;;6215235;23;20170;-89
2023/08/28 09:21:53;;;;;;;5.05;1.92;;;;;;;;;;6210194;23;20244;-91
2023/08/28 09:25:14;;;;;;;5.32;1.58;;;;;;;;;;6229021;23;20207;-89
2023/08/28 09:28:21;;;;;;;4.75;1.77;;;;;;;;;;6211979;23;20236;-88
2023/08/28 09:31:29;;;;;;;7.38;1.60;;;;;;;;;;6213594;23;20246;-92
2023/08/28 09:34:38;;;;;;;3.47;1.65;;;;;;;;;;6212328;23;20218;-92
2023/08/28 09:37:43;;;;;;;7.40;1.80;;;;;;;;;;6212281;23;20163;-89
2023/08/28 09:40:49;;;;;;;0.40;0.40;;;;;;;;;;6210589;23;20151;-91
2023/08/28 09:47:40;;;;;;;4.85;0.40;;;;;;;;;;6123110;23;20189;-91
2023/08/28 09:50:45;;;;;;;0.35;0.35;;;;;;;;;;6119565;23;20227;-89
2023/08/28 09:54:00;;;;;;;0.55;0.55;;;;;;;;;;6122367;23;20152;-90
2023/08/28 09:57:15;;;;;;;0.20;0.20;;;;;;;;;;6122070;23;20161;-89
2023/08/28 10:00:20;;;;;;;0.38;0.38;;;;;;;;;;6124387;23;20165;-89
2023/08/28 10:03:28;;;;;;;24.02;1.30;;;;;;;;;;6126240;23;20209;-92
2023/08/28 10:06:36;;;;;;;0.30;0.30;;;;;;;;;;6124035;23;20302;-90
2023/08/28 10:09:43;;;;;;;1.92;0.50;;;;;;;;;;6140797;23;20161;-91
2023/08/28 10:12:49;;;;;;;0.50;0.50;;;;;;;;;;6125859;23;20169;-90
2023/08/28 10:15:57;;;;;;;0.50;0.50;;;;;;;;;;6125264;23;20153;-90
2023/08/28 10:19:09;;;;;;;0.20;0.20;;;;;;;;;;6123007;23;20173;-93
2023/08/28 10:22:15;;;;;;;0.30;0.30;;;;;;;;;;6122112;23;20165;-91
2023/08/28 10:25:20;;;;;;;0.28;0.28;;;;;;;;;;6123451;23;20165;-89
2023/08/28 10:28:27;;;;;;;0.43;0.43;;;;;;;;;;6123869;23;20239;-91
2023/08/28 10:31:32;;;;;;;0.20;0.20;;;;;;;;;;6125089;23;20503;-89
2023/08/28 10:34:42;;;;;;;0.57;0.57;;;;;;;;;;6125192;23;20217;-88
2023/08/28 10:37:48;;;;;;;0.80;0.75;;;;;;;;;;6131418;23;20174;-87
2023/08/28 10:48:50;;;;;;;2.30;0.70;;;;;;;;;;6184930;23;20199;-87
2023/08/28 10:52:06;;;;;;;1.27;0.65;;;;;;;;;;6206398;23;20188;-93
2023/08/28 10:55:35;;;;;;;0.30;0.30;;;;;;;;;;6212910;23;20343;-92
2023/08/28 11:02:01;;;;;;;2.40;0.98;;;;;;;;;;6194571;23;20160;-92
2023/08/28 11:05:15;;;;;;;0.40;0.40;;;;;;;;;;6207219;23;20171;-93
2023/08/28 11:08:22;;;;;;;0.60;0.60;;;;;;;;;;6200067;23;20556;-90
2023/08/28 11:11:27;;;;;;;0.38;0.38;;;;;;;;;;6200017;23;20179;-89
2023/08/28 11:14:33;;;;;;;0.82;0.82;;;;;;;;;;6202276;23;20172;-93
2023/08/28 11:21:01;;;;;;;0.20;0.20;;;;;;;;;;6199914;23;20696;-90
2023/08/28 11:24:17;;;;;;;0.20;0.20;;;;;;;;;;6200736;23;20196;-90
2023/08/28 11:27:34;;;;;;;0.25;0.25;;;;;;;;;;6199748;23;20175;-90
2023/08/28 11:30:39;;;;;;;0.55;0.43;;;;;;;;;;6202422;23;20163;-89
2023/08/28 11:33:45;;;;;;;0.47;0.47;;;;;;;;;;6218898;23;20164;-92
2023/08/28 11:36:50;;;;;;;0.20;0.20;;;;;;;;;;6201820;23;20242;-87
2023/08/28 11:39:57;;;;;;;0.20;0.20;;;;;;;;;;6200565;23;20175;-91
2023/08/28 11:43:03;;;;;;;0.20;0.20;;;;;;;;;;6201883;23;20260;-91
2023/08/28 11:46:09;;;;;;;0.38;0.38;;;;;;;;;;6200522;23;20196;-92
2023/08/28 11:49:14;;;;;;;0.20;0.20;;;;;;;;;;6200535;23;20156;-89
2023/08/28 11:52:19;;;;;;;0.38;0.38;;;;;;;;;;6201769;23;20168;-89
2023/08/28 11:55:33;;;;;;;1.95;0.63;;;;;;;;;;6200632;23;20175;-90
2023/08/28 11:58:40;;;;;;;0.40;0.40;;;;;;;;;;6200819;23;20192;-89
2023/08/28 12:01:47;;;;;;;0.25;0.22;;;;;;;;;;6201422;23;20168;-89
2023/08/28 12:04:52;;;;;;;0.20;0.20;;;;;;;;;;6202588;23;20172;-90
2023/08/28 12:07:58;;;;;;;0.20;0.20;;;;;;;;;;6201295;23;20175;-89
2023/08/28 12:11:18;;;;;;;0.20;0.20;;;;;;;;;;6200778;23;20172;-89
2023/08/28 12:14:25;;;;;;;0.20;0.20;;;;;;;;;;6202393;23;20176;-90
2023/08/28 12:17:32;;;;;;;0.38;0.38;;;;;;;;;;6200668;23;20258;-90
2023/08/28 12:20:37;;;;;;;0.20;0.20;;;;;;;;;;6201121;23;20171;-89
2023/08/28 12:23:47;;;;;;;0.63;0.63;;;;;;;;;;6199381;23;20190;-93
2023/08/28 12:26:53;;;;;;;0.30;0.30;;;;;;;;;;6199186;23;20171;-91
2023/08/28 12:29:59;;;;;;;0.20;0.20;;;;;;;;;;6199909;23;20195;-91
2023/08/28 12:33:05;;;;;;;1.08;0.98;;;;;;;;;;6202345;23;20175;-91
2023/08/28 12:36:11;;;;;;;0.30;0.30;;;;;;;;;;6200119;23;20168;-90
2023/08/28 12:39:19;;;;;;;0.30;0.30;;;;;;;;;;6202534;23;20489;-91
2023/08/28 12:42:26;;;;;;;0.20;0.20;;;;;;;;;;6201236;23;20168;-90
2023/08/28 12:45:35;;;;;;;0.60;0.40;;;;;;;;;;6200575;23;20167;-92
2023/08/28 12:48:40;;;;;;;4.07;0.85;;;;;;;;;;6216778;23;20494;-91
2023/08/28 12:51:45;;;;;;;0.45;0.30;;;;;;;;;;6199863;23;20171;-92
2023/08/28 12:54:54;;;;;;;0.70;0.68;;;;;;;;;;6201330;23;20217;-91
2023/08/28 12:57:59;;;;;;;0.25;0.25;;;;;;;;;;6202971;23;20172;-92
2023/08/28 13:01:06;;;;;;;0.22;0.22;;;;;;;;;;6202991;23;20277;-89
2023/08/28 13:04:11;;;;;;;0.40;0.40;;;;;;;;;;6199891;23;20196;-90
2023/08/28 13:07:17;;;;;;;0.52;0.40;;;;;;;;;;6202099;23;20179;-92
2023/08/28 13:10:22;;;;;;;0.50;0.50;;;;;;;;;;6202221;23;20167;-91
2023/08/28 13:13:27;;;;;;;0.45;0.45;;;;;;;;;;6203028;23;20167;-93
2023/08/28 13:16:34;;;;;;;0.40;0.40;;;;;;;;;;6199159;23;20167;-91
2023/08/28 13:19:39;;;;;;;1.13;0.60;;;;;;;;;;6198479;23;20158;-89
2023/08/28 13:22:46;;;;;;;0.20;0.20;;;;;;;;;;6203076;23;20172;-91
2023/08/28 13:25:51;;;;;;;0.40;0.40;;;;;;;;;;6204430;23;20252;-91
2023/08/28 13:28:57;;;;;;;0.60;0.60;;;;;;;;;;6199978;23;20167;-90
2023/08/28 13:32:05;;;;;;;0.50;0.50;;;;;;;;;;6200128;23;20220;-91
2023/08/28 13:35:10;;;;;;;0.52;0.50;;;;;;;;;;6200419;23;20175;-87
2023/08/28 13:38:16;;;;;;;4.45;1.05;;;;;;;;;;6202438;23;20220;-91
2023/08/28 13:41:21;;;;;;;1.40;0.93;;;;;;;;;;6217606;23;20238;-90
2023/08/28 13:44:26;;;;;;;0.30;0.30;;;;;;;;;;6199594;23;20191;-92
2023/08/28 13:47:33;;;;;;;0.20;0.20;;;;;;;;;;6198882;23;20163;-90
2023/08/28 13:50:39;;;;;;;0.20;0.20;;;;;;;;;;6199576;23;20237;-89
2023/08/28 13:53:44;;;;;;;0.20;0.20;;;;;;;;;;6199231;23;20167;-93
2023/08/28 13:56:51;;;;;;;0.30;0.30;;;;;;;;;;6199423;23;20168;-93
2023/08/28 13:59:56;;;;;;;0.32;0.32;;;;;;;;;;6198450;23;20659;-91
2023/08/28 14:03:03;;;;;;;1.55;1.05;;;;;;;;;;6201029;23;20159;-91
2023/08/28 14:06:08;;;;;;;1.25;0.90;;;;;;;;;;6200483;23;20214;-89
2023/08/28 14:09:13;;;;;;;0.68;0.68;;;;;;;;;;6202541;23;20184;-88
2023/08/28 14:12:19;;;;;;;0.28;0.25;;;;;;;;;;6202655;23;20510;-90
2023/08/28 14:15:25;;;;;;;0.30;0.30;;;;;;;;;;6201390;23;20215;-91
2023/08/28 14:18:32;;;;;;;0.20;0.20;;;;;;;;;;6202844;23;20211;-90
2023/08/28 14:21:38;;;;;;;0.20;0.20;;;;;;;;;;6201751;23;20151;-91
2023/08/28 14:24:45;;;;;;;0.20;0.20;;;;;;;;;;6204782;23;20199;-92
2023/08/28 14:27:54;;;;;;;0.30;0.30;;;;;;;;;;6202728;23;20172;-89
2023/08/28 14:30:59;;;;;;;0.43;0.40;;;;;;;;;;6202009;23;20167;-93
2023/08/28 14:37:07;;;;;;;0.40;0.40;;;;;;;;;;6217664;23;20196;-90
2023/08/28 14:40:13;;;;;;;0.50;0.50;;;;;;;;;;6235282;23;20204;-91
2023/08/28 14:43:33;;;;;;;0.35;0.35;;;;;;;;;;6239172;23;20167;-91
2023/08/28 14:46:39;;;;;;;0.63;0.52;;;;;;;;;;6238034;23;20152;-90
2023/08/28 14:49:45;;;;;;;0.20;0.20;;;;;;;;;;6236945;23;20212;-89
2023/08/28 14:52:52;;;;;;;0.35;0.35;;;;;;;;;;6235156;23;20175;-90
2023/08/28 14:55:58;;;;;;;0.20;0.20;;;;;;;;;;6233741;23;20215;-90
2023/08/28 14:59:03;;;;;;;0.47;0.47;;;;;;;;;;6232895;23;20166;-90
2023/08/28 15:02:09;;;;;;;0.50;0.50;;;;;;;;;;6233886;23;20179;-90
2023/08/28 15:05:17;;;;;;;0.20;0.20;;;;;;;;;;6232194;23;20178;-92
2023/08/28 15:08:23;;;;;;;0.40;0.40;;;;;;;;;;6230319;23;20216;-93
2023/08/28 15:11:28;;;;;;;0.20;0.20;;;;;;;;;;6230743;23;20159;-92
2023/08/28 15:14:33;;;;;;;0.40;0.40;;;;;;;;;;6230722;23;20175;-90
2023/08/28 15:17:39;;;;;;;0.20;0.20;;;;;;;;;;6229610;23;20170;-90
2023/08/28 15:20:45;;;;;;;0.40;0.40;;;;;;;;;;6230778;23;20151;-91
2023/08/28 15:23:51;;;;;;;0.20;0.20;;;;;;;;;;6231453;23;20265;-89
2023/08/28 15:26:57;;;;;;;0.20;0.20;;;;;;;;;;6230981;23;20171;-90
2023/08/28 15:30:02;;;;;;;13.48;1.10;;;;;;;;;;6230863;23;20171;-90
2023/08/28 15:33:07;;;;;;;0.30;0.30;;;;;;;;;;6230545;23;20615;-89
2023/08/28 15:36:12;;;;;;;0.20;0.20;;;;;;;;;;6250986;22;20249;-92
2023/08/28 15:39:19;;;;;;;0.20;0.20;;;;;;;;;;6231844;23;20170;-90
2023/08/28 15:42:24;;;;;;;0.30;0.30;;;;;;;;;;6232022;23;20195;-91
2023/08/28 15:45:30;;;;;;;0.20;0.20;;;;;;;;;;6233210;23;20669;-91
2023/08/28 15:48:35;;;;;;;12.15;1.00;;;;;;;;;;6231981;23;20162;-90
2023/08/28 15:51:40;;;;;;;0.40;0.40;;;;;;;;;;6232524;23;20200;-90
2023/08/28 15:54:47;;;;;;;0.20;0.20;;;;;;;;;;6237116;23;20192;-94
2023/08/28 15:57:53;;;;;;;0.20;0.20;;;;;;;;;;6235331;23;20175;-90
2023/08/28 16:01:00;;;;;;;0.30;0.30;;;;;;;;;;6233884;23;20224;-90
2023/08/28 16:04:08;;;;;;;0.20;0.20;;;;;;;;;;6232002;23;20194;-88
2023/08/28 16:07:14;;;;;;;0.65;0.65;;;;;;;;;;6235686;23;20167;-91
2023/08/28 16:10:23;;;;;;;0.25;0.25;;;;;;;;;;6233911;23;20202;-90
2023/08/28 16:13:29;;;;;;;0.60;0.60;;;;;;;;;;6231282;23;20179;-91
2023/08/28 16:16:34;;;;;;;0.20;0.20;;;;;;;;;;6230955;23;20205;-90
2023/08/28 16:19:39;;;;;;;0.38;0.38;;;;;;;;;;6233171;23;20171;-91
2023/08/28 16:22:44;;;;;;;0.20;0.20;;;;;;;;;;6230002;23;20163;-92
2023/08/28 16:25:55;;;;;;;3.10;0.80;;;;;;;;;;6214606;23;20211;-90
2023/08/28 16:29:00;;;;;;;0.22;0.22;;;;;;;;;;6230950;23;20226;-92
2023/08/28 16:32:09;;;;;;;0.30;0.30;;;;;;;;;;6231565;23;20171;-91
2023/08/28 16:35:18;;;;;;;0.30;0.30;;;;;;;;;;6236152;23;20164;-91
2023/08/28 16:38:24;;;;;;;0.50;0.50;;;;;;;;;;6236960;23;20171;-88
2023/08/28 16:41:40;;;;;;;0.20;0.20;;;;;;;;;;6232797;23;20163;-89
2023/08/28 16:44:46;;;;;;;0.20;0.20;;;;;;;;;;6232412;23;20637;-88
2023/08/28 16:47:52;;;;;;;0.40;0.40;;;;;;;;;;6231972;23;20200;-89
2023/08/28 16:50:58;;;;;;;0.80;0.57;;;;;;;;;;6231366;23;20171;-91
2023/08/28 16:54:03;;;;;;;0.30;0.30;;;;;;;;;;6230561;23;20171;-89
2023/08/28 16:57:11;;;;;;;0.52;0.52;;;;;;;;;;6230700;23;20203;-91
2023/08/28 17:00:17;;;;;;;0.30;0.30;;;;;;;;;;6229942;23;20167;-91
2023/08/28 17:03:23;;;;;;;1.45;0.82;;;;;;;;;;6231397;23;20155;-88
2023/08/28 17:06:29;;;;;;;0.30;0.30;;;;;;;;;;6231699;23;20215;-90
2023/08/28 17:09:34;;;;;;;0.20;0.20;;;;;;;;;;6229878;23;20164;-90
2023/08/28 17:12:41;;;;;;;0.20;0.20;;;;;;;;;;6231996;23;20237;-91
2023/08/28 17:15:47;;;;;;;0.40;0.40;;;;;;;;;;6231249;23;20162;-89
2023/08/28 17:18:52;;;;;;;0.25;0.25;;;;;;;;;;6231086;23;20163;-94
2023/08/28 17:21:58;;;;;;;6.82;0.85;;;;;;;;;;6229201;23;20190;-91
2023/08/28 17:25:03;;;;;;;0.20;0.20;;;;;;;;;;6229320;23;20194;-91
2023/08/28 17:28:11;;;;;;;1.67;0.30;;;;;;;;;;6231011;23;20227;-89
2023/08/28 17:31:17;;;;;;;0.20;0.20;;;;;;;;;;6229775;23;20168;-91
2023/08/28 17:34:23;;;;;;;0.63;0.63;;;;;;;;;;6230859;23;20167;-90
2023/08/28 17:37:29;;;;;;;0.40;0.40;;;;;;;;;;6228812;23;20202;-91
2023/08/28 17:40:34;;;;;;;0.30;0.30;;;;;;;;;;6230430;23;20231;-89
2023/08/28 17:43:41;;;;;;;0.85;0.77;;;;;;;;;;6229023;23;20167;-90
2023/08/28 17:46:47;;;;;;;0.22;0.22;;;;;;;;;;6228890;23;20171;-92
2023/08/28 17:49:55;;;;;;;0.30;0.30;;;;;;;;;;6229190;23;20155;-89
2023/08/28 17:53:01;;;;;;;0.30;0.30;;;;;;;;;;6228786;23;20599;-88
2023/08/28 17:56:06;;;;;;;0.20;0.20;;;;;;;;;;6230554;23;20166;-91
2023/08/28 17:59:13;;;;;;;0.20;0.20;;;;;;;;;;6229691;23;20476;-92
2023/08/28 18:02:18;;;;;;;0.20;0.20;;;;;;;;;;6229544;23;20164;-92
2023/08/28 18:05:23;;;;;;;0.20;0.20;;;;;;;;;;6228702;23;20183;-92
2023/08/28 18:08:28;;;;;;;0.30;0.30;;;;;;;;;;6229295;23;20155;-90
2023/08/28 18:11:39;;;;;;;0.20;0.20;;;;;;;;;;6229250;23;20213;-91
2023/08/28 18:14:45;;;;;;;0.30;0.30;;;;;;;;;;6229913;23;20464;-92
2023/08/28 18:17:50;;;;;;;0.20;0.20;;;;;;;;;;6231273;23;20166;-91
2023/08/28 18:20:56;;;;;;;0.35;0.30;;;;;;;;;;6232234;23;20195;-92
2023/08/28 18:24:03;;;;;;;0.20;0.20;;;;;;;;;;6232407;23;20171;-91
2023/08/28 18:27:08;;;;;;;0.20;0.20;;;;;;;;;;6234707;23;20174;-86
2023/08/28 18:30:16;;;;;;;0.30;0.30;;;;;;;;;;6231232;23;20171;-91
2023/08/28 18:33:21;;;;;;;0.20;0.20;;;;;;;;;;6230658;23;20175;-90
2023/08/28 18:36:26;;;;;;;0.20;0.20;;;;;;;;;;6232206;23;20187;-91
2023/08/28 18:39:31;;;;;;;0.20;0.20;;;;;;;;;;6231126;23;20164;-90
2023/08/28 18:42:36;;;;;;;0.20;0.20;;;;;;;;;;6230356;23;20166;-90
2023/08/28 18:45:43;;;;;;;0.20;0.20;;;;;;;;;;6232907;23;20203;-90
2023/08/28 18:48:48;;;;;;;0.20;0.20;;;;;;;;;;6234490;23;20642;-90
2023/08/28 18:51:55;;;;;;;0.35;0.28;;;;;;;;;;6236654;23;20262;-89
2023/08/28 18:55:01;;;;;;;0.20;0.20;;;;;;;;;;6233287;23;20171;-90
2023/08/28 18:58:14;;;;;;;0.22;0.22;;;;;;;;;;6236743;23;20239;-91
2023/08/28 19:01:23;;;;;;;0.20;0.20;;;;;;;;;;6233477;23;20159;-92